createdAt,value
2023-10-23T00:00:07.721Z,96308.80
2023-10-23T00:02:59.939Z,96302.73
2023-10-23T00:05:28.742Z,96306.63
2023-10-23T00:07:57.536Z,96302.52
2023-10-23T00:10:26.020Z,96302.30
2023-10-23T00:12:54.552Z,96298.77
2023-10-23T00:15:23.424Z,96304.63
2023-10-23T00:17:52.214Z,96304.64
2023-10-23T00:20:21.571Z,96302.32
2023-10-23T00:22:50.075Z,96303.60
2023-10-23T00:25:18.770Z,96305.49
2023-10-23T00:27:47.236Z,96303.60
2023-10-23T00:30:15.846Z,96297.66
2023-10-23T00:32:44.268Z,96292.12
2023-10-23T00:35:12.881Z,96289.95
2023-10-23T00:37:41.464Z,96288.17
2023-10-23T00:40:10.462Z,96301.86
2023-10-23T00:42:39.153Z,96317.33
2023-10-23T00:45:08.314Z,96312.58
2023-10-23T00:47:37.049Z,96308.80
2023-10-23T00:50:06.001Z,96305.21
2023-10-23T00:52:34.831Z,96302.41
2023-10-23T00:55:05.010Z,96311.05
2023-10-23T00:57:34.178Z,96307.48
2023-10-23T01:00:05.761Z,96304.42
2023-10-23T01:02:35.177Z,96308.21
2023-10-23T01:05:03.892Z,96310.69
2023-10-23T01:07:32.487Z,96309.94
2023-10-23T01:10:01.272Z,96307.88
2023-10-23T01:12:30.611Z,96309.57
2023-10-23T01:14:59.362Z,96310.58
2023-10-23T01:17:27.860Z,96308.46
2023-10-23T01:19:56.332Z,96313.64
2023-10-23T01:22:24.660Z,96312.85
2023-10-23T01:24:53.859Z,96316.64
2023-10-23T01:27:22.450Z,96318.75
2023-10-23T01:29:50.868Z,96316.89
2023-10-23T01:32:19.260Z,96313.61
2023-10-23T01:34:48.050Z,96311.07
2023-10-23T01:37:16.430Z,96309.29
2023-10-23T01:39:45.041Z,96310.44
2023-10-23T01:42:13.701Z,96309.91
2023-10-23T01:44:42.040Z,96309.86
2023-10-23T01:47:10.622Z,96311.90
2023-10-23T01:49:39.034Z,96312.75
2023-10-23T01:52:07.414Z,96314.06
2023-10-23T01:54:35.941Z,96318.21
2023-10-23T01:57:04.693Z,96318.11
2023-10-23T01:59:33.165Z,96319.73
2023-10-23T02:02:01.650Z,96316.33
2023-10-23T02:04:30.801Z,96320.48
2023-10-23T02:06:59.636Z,96320.59
2023-10-23T02:09:29.567Z,96323.05
2023-10-23T02:11:58.033Z,96325.84
2023-10-23T02:14:26.516Z,96324.48
2023-10-23T02:16:56.485Z,96327.65
2023-10-23T02:19:24.806Z,96329.70
2023-10-23T02:21:53.245Z,96334.23
2023-10-23T02:24:21.706Z,96338.16
2023-10-23T02:26:50.466Z,96341.83
2023-10-23T02:29:19.144Z,96341.20
2023-10-23T02:31:47.623Z,96344.35
2023-10-23T02:34:17.674Z,96343.88
2023-10-23T02:36:46.262Z,96345.64
2023-10-23T02:39:14.921Z,96347.40
2023-10-23T02:41:43.922Z,96347.11
2023-10-23T02:44:12.502Z,96342.23
2023-10-23T02:46:42.457Z,96343.51
2023-10-23T02:49:11.112Z,96341.02
2023-10-23T02:51:39.839Z,96344.30
2023-10-23T02:54:08.389Z,96349.80
2023-10-23T02:56:36.879Z,96352.40
2023-10-23T02:59:05.593Z,96354.88
2023-10-23T03:01:34.383Z,96355.06
2023-10-23T03:04:03.833Z,96355.45
2023-10-23T03:06:32.755Z,96361.50
2023-10-23T03:09:01.530Z,96364.33
2023-10-23T03:11:30.315Z,96364.64
2023-10-23T03:13:58.709Z,96365.79
2023-10-23T03:16:27.860Z,96374.17
2023-10-23T03:18:56.622Z,96377.43
2023-10-23T03:21:25.157Z,96374.08
2023-10-23T03:23:53.573Z,96374.60
2023-10-23T03:26:22.127Z,96374.25
2023-10-23T03:28:50.636Z,96375.95
2023-10-23T03:31:19.507Z,96380.03
2023-10-23T03:33:48.113Z,96385.85
2023-10-23T03:36:17.592Z,96384.53
2023-10-23T03:38:46.996Z,96384.50
2023-10-23T03:41:15.578Z,96384.33
2023-10-23T03:43:44.068Z,96384.66
2023-10-23T03:46:12.955Z,96385.50
2023-10-23T03:48:41.695Z,96383.17
2023-10-23T03:51:10.630Z,96380.91
2023-10-23T03:53:39.231Z,96383.73
2023-10-23T03:56:07.800Z,96384.52
2023-10-23T03:58:36.281Z,96380.70
2023-10-23T04:01:04.863Z,96382.73
2023-10-23T04:03:33.607Z,96382.91
2023-10-23T04:06:04.511Z,96382.95
2023-10-23T04:08:32.994Z,96385.02
2023-10-23T04:11:01.582Z,96389.36
2023-10-23T04:13:30.653Z,96387.50
2023-10-23T04:16:00.550Z,96389.80
2023-10-23T04:18:29.628Z,96387.86
2023-10-23T04:21:09.160Z,96391.19
2023-10-23T04:23:38.942Z,96386.66
2023-10-23T04:26:08.439Z,96386.79
2023-10-23T04:28:38.209Z,96391.48
2023-10-23T04:31:06.952Z,96391.91
2023-10-23T04:33:35.577Z,96393.61
2023-10-23T04:36:04.384Z,96395.52
2023-10-23T04:38:33.212Z,96396.96
2023-10-23T04:41:01.696Z,96395.83
2023-10-23T04:43:30.482Z,96398.08
2023-10-23T04:45:59.410Z,96401.02
2023-10-23T04:48:28.400Z,96404.27
2023-10-23T04:51:03.570Z,96408.95
2023-10-23T04:53:31.996Z,96409.80
2023-10-23T04:56:00.373Z,96410.63
2023-10-23T04:58:29.000Z,96416.21
2023-10-23T05:00:57.602Z,96418.16
2023-10-23T05:03:26.626Z,96422.42
2023-10-23T05:05:55.123Z,96428.65
2023-10-23T05:08:23.500Z,96429.79
2023-10-23T05:10:52.386Z,96434.61
2023-10-23T05:13:21.284Z,96435.40
2023-10-23T05:15:49.858Z,96440.20
2023-10-23T05:18:18.363Z,96442.09
2023-10-23T05:20:46.843Z,96445.06
2023-10-23T05:23:15.316Z,96449.08
2023-10-23T05:25:43.705Z,96453.62
2023-10-23T05:28:12.183Z,96457.91
2023-10-23T05:30:40.809Z,96462.41
2023-10-23T05:33:09.315Z,96463.65
2023-10-23T05:35:37.928Z,96465.55
2023-10-23T05:38:06.732Z,96468.02
2023-10-23T05:40:35.211Z,96467.90
2023-10-23T05:43:03.796Z,96472.08
2023-10-23T05:45:32.348Z,96472.73
2023-10-23T05:48:01.115Z,96476.17
2023-10-23T05:50:29.938Z,96482.05
2023-10-23T05:52:58.424Z,96483.69
2023-10-23T05:55:26.907Z,96486.99
2023-10-23T05:57:57.186Z,96487.98
2023-10-23T06:00:25.712Z,96494.90
2023-10-23T06:02:54.154Z,96499.11
2023-10-23T06:05:22.678Z,96499.27
2023-10-23T06:07:51.131Z,96498.94
2023-10-23T06:10:19.564Z,96500.83
2023-10-23T06:12:48.047Z,96502.58
2023-10-23T06:15:16.552Z,96497.62
2023-10-23T06:17:45.056Z,96500.26
2023-10-23T06:20:13.647Z,96502.91
2023-10-23T06:22:42.254Z,96506.85
2023-10-23T06:25:10.736Z,96512.64
2023-10-23T06:27:39.451Z,96511.74
2023-10-23T06:30:08.730Z,96514.54
2023-10-23T06:32:37.157Z,96517.04
2023-10-23T06:35:06.411Z,96519.86
2023-10-23T06:37:34.985Z,96522.55
2023-10-23T06:40:04.069Z,96526.88
2023-10-23T06:42:32.553Z,96528.95
2023-10-23T06:45:01.119Z,96529.52
2023-10-23T06:47:29.835Z,96529.96
2023-10-23T06:49:58.328Z,96536.52
2023-10-23T06:52:27.181Z,96536.08
2023-10-23T06:54:55.779Z,96538.42
2023-10-23T06:57:24.490Z,96536.54
2023-10-23T06:59:55.835Z,96537.91
2023-10-23T07:02:24.627Z,96540.02
2023-10-23T07:04:53.483Z,96544.23
2023-10-23T07:07:30.213Z,96545.02
2023-10-23T07:10:01.961Z,96546.79
2023-10-23T07:12:30.425Z,96548.02
2023-10-23T07:14:58.856Z,96551.77
2023-10-23T07:17:27.606Z,96551.65
2023-10-23T07:19:56.283Z,96551.50
2023-10-23T07:22:24.866Z,96556.47
2023-10-23T07:24:56.214Z,96556.73
2023-10-23T07:27:24.750Z,96557.84
2023-10-23T07:29:54.646Z,96557.91
2023-10-23T07:32:23.196Z,96553.09
2023-10-23T07:34:51.680Z,96557.52
2023-10-23T07:37:20.295Z,96565.86
2023-10-23T07:39:49.722Z,96567.66
2023-10-23T07:42:18.555Z,96560.14
2023-10-23T07:44:47.135Z,96557.46
2023-10-23T07:47:15.835Z,96552.77
2023-10-23T07:49:45.732Z,96553.64
2023-10-23T07:52:14.121Z,96547.61
2023-10-23T07:54:42.619Z,96553.03
2023-10-23T07:57:11.079Z,96547.98
2023-10-23T07:59:41.486Z,96547.48
2023-10-23T08:02:10.333Z,96548.02
2023-10-23T08:04:39.195Z,96548.40
2023-10-23T08:07:07.784Z,96550.09
2023-10-23T08:09:36.774Z,96550.93
2023-10-23T08:12:05.721Z,96551.63
2023-10-23T08:14:34.144Z,96556.44
2023-10-23T08:17:02.862Z,96555.89
2023-10-23T08:19:31.561Z,96555.71
2023-10-23T08:22:00.960Z,96560.23
2023-10-23T08:24:29.401Z,96562.36
2023-10-23T08:26:57.980Z,96565.89
2023-10-23T08:29:28.405Z,96566.30
2023-10-23T08:31:56.954Z,96565.52
2023-10-23T08:34:25.920Z,96562.11
2023-10-23T08:36:54.567Z,96562.59
2023-10-23T08:39:23.459Z,96562.63
2023-10-23T08:41:52.349Z,96557.55
2023-10-23T08:44:21.141Z,96563.30
2023-10-23T08:46:51.089Z,96562.52
2023-10-23T08:49:20.203Z,96563.61
2023-10-23T08:51:54.846Z,96565.45
2023-10-23T08:54:23.580Z,96563.73
2023-10-23T08:56:59.990Z,96564.41
2023-10-23T08:59:29.141Z,96566.92
2023-10-23T09:02:01.761Z,96569.86
2023-10-23T09:04:31.235Z,96569.86
2023-10-23T09:07:01.200Z,96567.57
2023-10-23T09:09:30.333Z,96563.88
2023-10-23T09:11:59.126Z,96559.14
2023-10-23T09:14:29.685Z,96556.64
2023-10-23T09:16:59.417Z,96548.69
2023-10-23T09:19:36.000Z,96549.40
2023-10-23T09:22:05.784Z,96545.24
2023-10-23T09:24:34.441Z,96543.64
2023-10-23T09:27:03.235Z,96540.70
2023-10-23T09:29:32.100Z,96542.63
2023-10-23T09:32:01.012Z,96544.27
2023-10-23T09:34:30.543Z,96540.52
2023-10-23T09:36:59.148Z,96537.96
2023-10-23T09:39:27.820Z,96534.27
2023-10-23T09:41:57.063Z,96531.50
2023-10-23T09:44:28.358Z,96529.27
2023-10-23T09:46:59.936Z,96525.48
2023-10-23T09:49:30.003Z,96520.94
2023-10-23T09:52:01.925Z,96518.16
2023-10-23T09:54:33.087Z,96513.26
2023-10-23T09:57:07.590Z,96510.86
2023-10-23T09:59:44.050Z,96503.95
2023-10-23T10:02:16.532Z,96502.59
2023-10-23T10:05:07.004Z,96501.61
2023-10-23T10:07:53.902Z,96497.41
2023-10-23T10:10:22.929Z,96492.58
2023-10-23T10:12:51.926Z,96493.98
2023-10-23T10:15:21.216Z,96494.53
2023-10-23T10:17:51.675Z,96489.85
2023-10-23T10:20:23.942Z,96490.69
2023-10-23T10:23:04.668Z,96486.05
2023-10-23T10:25:35.613Z,96484.14
2023-10-23T10:28:06.156Z,96480.45
2023-10-23T10:30:44.742Z,96477.63
2023-10-23T10:34:21.933Z,96480.67
2023-10-23T10:36:11.630Z,96478.92
2023-10-23T10:38:40.201Z,96475.38
2023-10-23T10:41:17.132Z,96475.66
2023-10-23T10:43:52.968Z,96476.63
2023-10-23T10:46:26.578Z,96479.30
2023-10-23T10:48:56.641Z,96478.54
2023-10-23T10:51:27.391Z,96471.27
2023-10-23T10:54:00.003Z,96467.41
2023-10-23T10:56:28.779Z,96472.41
2023-10-23T10:59:01.364Z,96466.45
2023-10-23T11:01:30.618Z,96463.94
2023-10-23T11:04:00.704Z,96463.46
2023-10-23T11:06:31.161Z,96463.56
2023-10-23T11:09:00.661Z,96461.63
2023-10-23T11:11:29.812Z,96461.47
2023-10-23T11:14:03.605Z,96459.77
2023-10-23T11:16:32.594Z,96456.86
2023-10-23T11:19:02.372Z,96454.23
2023-10-23T11:21:30.999Z,96451.05
2023-10-23T11:23:59.645Z,96445.07
2023-10-23T11:26:28.169Z,96445.89
2023-10-23T11:28:56.672Z,96447.01
2023-10-23T11:31:25.664Z,96444.92
2023-10-23T11:33:57.262Z,96444.35
2023-10-23T11:36:31.324Z,96446.88
2023-10-23T11:38:59.785Z,96445.91
2023-10-23T11:41:29.187Z,96445.73
2023-10-23T11:44:04.504Z,96440.44
2023-10-23T11:46:35.283Z,96446.15
2023-10-23T11:49:04.335Z,96446.41
2023-10-23T11:51:32.851Z,96442.89
2023-10-23T11:54:05.020Z,96439.40
2023-10-23T11:56:34.113Z,96439.56
2023-10-23T11:59:02.589Z,96438.40
2023-10-23T12:01:34.239Z,96435.64
2023-10-23T12:04:02.914Z,96432.13
2023-10-23T12:06:31.639Z,96432.83
2023-10-23T12:09:00.220Z,96434.13
2023-10-23T12:11:30.564Z,96429.80
2023-10-23T12:14:01.028Z,96426.91
2023-10-23T12:16:32.040Z,96422.04
2023-10-23T12:19:01.481Z,96415.29
2023-10-23T12:21:29.906Z,96414.41
2023-10-23T12:23:58.378Z,96408.65
2023-10-23T12:26:27.373Z,96406.05
2023-10-23T12:28:55.858Z,96407.04
2023-10-23T12:31:24.964Z,96403.88
2023-10-23T12:33:53.901Z,96399.48
2023-10-23T12:36:22.740Z,96401.95
2023-10-23T12:38:51.313Z,96403.48
2023-10-23T12:41:19.928Z,96406.84
2023-10-23T12:43:49.450Z,96415.20
2023-10-23T12:46:18.968Z,96417.80
2023-10-23T12:48:47.778Z,96420.95
2023-10-23T12:51:16.771Z,96424.73
2023-10-23T12:53:45.181Z,96431.06
2023-10-23T12:56:13.669Z,96438.16
2023-10-23T12:58:42.861Z,96435.67
2023-10-23T13:01:11.491Z,96433.60
2023-10-23T13:03:40.170Z,96429.70
2023-10-23T13:06:09.230Z,96425.81
2023-10-23T13:08:37.614Z,96416.23
2023-10-23T13:11:06.089Z,96414.63
2023-10-23T13:13:34.684Z,96415.39
2023-10-23T13:16:03.207Z,96415.91
2023-10-23T13:18:32.725Z,96411.78
2023-10-23T13:21:31.480Z,96412.02
2023-10-23T13:23:51.030Z,96414.64
2023-10-23T13:26:19.923Z,96410.68
2023-10-23T13:28:49.494Z,96408.45
2023-10-23T13:31:18.575Z,96405.15
2023-10-23T13:33:47.576Z,96408.55
2023-10-23T13:36:16.313Z,96407.97
2023-10-23T13:38:44.802Z,96406.27
2023-10-23T13:41:13.481Z,96402.88
2023-10-23T13:43:42.275Z,96404.91
2023-10-23T13:46:10.889Z,96411.11
2023-10-23T13:48:39.446Z,96416.74
2023-10-23T13:51:09.321Z,96420.13
2023-10-23T13:53:38.562Z,96418.65
2023-10-23T13:56:07.612Z,96417.47
2023-10-23T13:58:37.684Z,96416.02
2023-10-23T14:01:06.474Z,96410.06
2023-10-23T14:03:35.886Z,96409.66
2023-10-23T14:06:05.369Z,96412.44
2023-10-23T14:09:42.419Z,96413.00
2023-10-23T14:11:58.256Z,96413.02
2023-10-23T14:14:11.265Z,96417.30
2023-10-23T14:16:39.920Z,96418.02
2023-10-23T14:19:08.661Z,96417.64
2023-10-23T14:21:39.478Z,96414.02
2023-10-23T14:24:08.614Z,96412.33
2023-10-23T14:26:37.264Z,96408.67
2023-10-23T14:29:08.819Z,96404.53
2023-10-23T14:31:37.496Z,96404.36
2023-10-23T14:34:06.143Z,96406.94
2023-10-23T14:36:34.884Z,96409.77
2023-10-23T14:39:03.773Z,96409.73
2023-10-23T14:41:34.206Z,96412.77
2023-10-23T14:44:03.021Z,96408.40
2023-10-23T14:46:32.574Z,96408.10
2023-10-23T14:49:03.146Z,96411.19
2023-10-23T14:51:31.728Z,96412.60
2023-10-23T14:54:00.190Z,96413.98
2023-10-23T14:56:29.938Z,96411.54
2023-10-23T14:58:58.394Z,96406.75
2023-10-23T15:01:26.817Z,96407.86
2023-10-23T15:03:57.162Z,96408.79
2023-10-23T15:06:29.604Z,96410.16
2023-10-23T15:09:02.359Z,96413.52
2023-10-23T15:11:30.943Z,96417.29
2023-10-23T15:13:59.826Z,96414.75
2023-10-23T15:16:28.419Z,96417.33
2023-10-23T15:18:57.157Z,96420.80
2023-10-23T15:21:25.893Z,96419.08
2023-10-23T15:23:54.677Z,96416.98
2023-10-23T15:26:23.162Z,96416.91
2023-10-23T15:28:51.963Z,96414.86
2023-10-23T15:31:20.558Z,96416.08
2023-10-23T15:33:49.231Z,96417.23
2023-10-23T15:36:17.670Z,96422.66
2023-10-23T15:38:46.397Z,96425.04
2023-10-23T15:41:15.675Z,96423.09
2023-10-23T15:43:47.852Z,96425.23
2023-10-23T15:46:17.618Z,96423.02
2023-10-23T15:48:46.990Z,96420.96
2023-10-23T15:51:18.070Z,96424.16
2023-10-23T15:53:46.511Z,96424.13
2023-10-23T15:56:14.901Z,96425.42
2023-10-23T15:58:43.468Z,96419.44
2023-10-23T16:01:12.042Z,96425.17
2023-10-23T16:03:40.906Z,96426.48
2023-10-23T16:06:10.090Z,96432.65
2023-10-23T16:08:39.580Z,96437.30
2023-10-23T16:11:09.286Z,96440.50
2023-10-23T16:13:38.914Z,96442.42
2023-10-23T16:16:10.424Z,96441.13
2023-10-23T16:18:46.459Z,96444.13
2023-10-23T16:21:16.325Z,96445.42
2023-10-23T16:23:45.307Z,96444.79
2023-10-23T16:26:14.022Z,96446.57
2023-10-23T16:28:42.467Z,96447.95
2023-10-23T16:31:17.415Z,96446.63
2023-10-23T16:33:45.900Z,96444.96
2023-10-23T16:36:14.469Z,96450.73
2023-10-23T16:38:43.182Z,96449.52
2023-10-23T16:41:11.641Z,96448.05
2023-10-23T16:43:43.607Z,96445.20
2023-10-23T16:46:13.202Z,96444.30
2023-10-23T16:48:42.988Z,96446.68
2023-10-23T16:51:11.833Z,96444.42
2023-10-23T16:53:40.647Z,96443.36
2023-10-23T16:56:09.193Z,96444.63
2023-10-23T16:58:37.765Z,96448.55
2023-10-23T17:01:10.324Z,96446.83
2023-10-23T17:03:40.683Z,96442.42
2023-10-23T17:06:10.338Z,96442.02
2023-10-23T17:08:38.870Z,96439.11
2023-10-23T17:11:09.254Z,96439.79
2023-10-23T17:13:38.429Z,96440.45
2023-10-23T17:16:08.076Z,96442.34
2023-10-23T17:18:36.890Z,96442.85
2023-10-23T17:21:05.479Z,96441.01
2023-10-23T17:23:35.294Z,96437.46
2023-10-23T17:26:03.996Z,96437.71
2023-10-23T17:28:32.655Z,96438.00
2023-10-23T17:31:01.552Z,96437.42
2023-10-23T17:33:34.506Z,96429.52
2023-10-23T17:36:04.159Z,96428.38
2023-10-23T17:38:32.752Z,96432.98
2023-10-23T17:41:01.211Z,96432.61
2023-10-23T17:43:30.111Z,96433.80
2023-10-23T17:46:02.977Z,96434.81
2023-10-23T17:48:32.594Z,96435.39
2023-10-23T17:51:09.889Z,96443.20
2023-10-23T17:53:44.340Z,96445.37
2023-10-23T17:56:22.308Z,96445.05
2023-10-23T17:58:55.904Z,96446.13
2023-10-23T18:01:24.834Z,96445.61
2023-10-23T18:03:53.483Z,96441.77
2023-10-23T18:06:21.977Z,96448.45
2023-10-23T18:08:50.517Z,96451.16
2023-10-23T18:11:19.150Z,96457.18
2023-10-23T18:13:47.925Z,96457.96
2023-10-23T18:16:16.466Z,96459.45
2023-10-23T18:18:45.143Z,96460.02
2023-10-23T18:21:13.793Z,96456.91
2023-10-23T18:23:42.263Z,96454.70
2023-10-23T18:26:11.099Z,96450.90
2023-10-23T18:28:39.647Z,96458.35
2023-10-23T18:31:08.546Z,96459.66
2023-10-23T18:33:37.420Z,96458.81
2023-10-23T18:36:07.034Z,96457.08
2023-10-23T18:38:35.515Z,96457.29
2023-10-23T18:41:04.044Z,96451.23
2023-10-23T18:43:32.845Z,96448.16
2023-10-23T18:46:01.648Z,96448.41
2023-10-23T18:48:30.284Z,96448.31
2023-10-23T18:51:00.785Z,96450.21
2023-10-23T18:53:30.089Z,96452.01
2023-10-23T18:55:58.569Z,96455.08
2023-10-23T18:58:27.289Z,96449.69
2023-10-23T19:00:56.101Z,96450.12
2023-10-23T19:03:25.006Z,96453.77
2023-10-23T19:05:57.635Z,96451.01
2023-10-23T19:08:29.164Z,96449.53
2023-10-23T19:10:57.658Z,96448.10
2023-10-23T19:13:27.006Z,96450.89
2023-10-23T19:15:59.957Z,96451.73
2023-10-23T19:18:31.040Z,96457.45
2023-10-23T19:21:12.776Z,96454.48
2023-10-23T19:23:44.845Z,96456.20
2023-10-23T19:26:16.395Z,96462.13
2023-10-23T19:28:46.155Z,96460.42
2023-10-23T19:31:20.496Z,96465.17
2023-10-23T19:33:49.747Z,96468.61
2023-10-23T19:36:20.750Z,96470.94
2023-10-23T19:38:49.689Z,96470.51
2023-10-23T19:41:32.292Z,96468.80
2023-10-23T19:44:00.969Z,96471.30
2023-10-23T19:46:30.160Z,96467.38
2023-10-23T19:49:01.058Z,96463.92
2023-10-23T19:51:31.617Z,96459.40
2023-10-23T19:54:01.219Z,96456.82
2023-10-23T19:56:33.002Z,96459.80
2023-10-23T19:59:02.127Z,96457.43
2023-10-23T20:01:31.007Z,96462.52
2023-10-23T20:03:59.697Z,96459.92
2023-10-23T20:06:28.598Z,96459.50
2023-10-23T20:08:57.110Z,96456.77
2023-10-23T20:11:25.687Z,96454.42
2023-10-23T20:13:54.256Z,96452.80
2023-10-23T20:16:22.785Z,96456.38
2023-10-23T20:18:51.323Z,96455.39
2023-10-23T20:21:20.118Z,96457.94
2023-10-23T20:23:48.804Z,96458.71
2023-10-23T20:26:17.911Z,96458.94
2023-10-23T20:28:47.711Z,96460.56
2023-10-23T20:31:21.658Z,96467.23
2023-10-23T20:33:53.180Z,96466.80
2023-10-23T20:36:22.842Z,96462.80
2023-10-23T20:38:51.375Z,96463.98
2023-10-23T20:41:20.567Z,96459.66
2023-10-23T20:43:50.256Z,96454.04
2023-10-23T20:46:19.293Z,96445.73
2023-10-23T20:48:47.951Z,96437.61
2023-10-23T20:51:17.139Z,96431.36
2023-10-23T20:53:45.631Z,96432.42
2023-10-23T20:56:14.308Z,96430.48
2023-10-23T20:58:43.548Z,96420.66
2023-10-23T21:01:12.205Z,96415.25
2023-10-23T21:03:40.797Z,96413.30
2023-10-23T21:06:09.557Z,96414.59
2023-10-23T21:08:40.252Z,96415.20
2023-10-23T21:11:09.069Z,96417.57
2023-10-23T21:13:38.106Z,96421.58
2023-10-23T21:16:08.773Z,96422.42
2023-10-23T21:18:37.392Z,96423.80
2023-10-23T21:21:06.280Z,96429.05
2023-10-23T21:23:34.975Z,96430.35
2023-10-23T21:26:08.075Z,96436.66
2023-10-23T21:28:42.925Z,96428.90
2023-10-23T21:31:12.375Z,96426.35
2023-10-23T21:33:41.005Z,96422.14
2023-10-23T21:36:10.193Z,96422.59
2023-10-23T21:38:38.805Z,96415.80
2023-10-23T21:41:07.476Z,96415.27
2023-10-23T21:43:37.213Z,96410.54
2023-10-23T21:46:16.843Z,96409.96
2023-10-23T21:48:46.178Z,96409.02
2023-10-23T21:51:14.608Z,96404.81
2023-10-23T21:53:43.400Z,96404.92
2023-10-23T21:56:19.976Z,96401.47
2023-10-23T21:59:11.638Z,96404.77
2023-10-23T22:01:44.157Z,96411.70
2023-10-23T22:04:13.409Z,96415.52
2023-10-23T22:06:43.856Z,96411.44
2023-10-23T22:09:14.811Z,96406.61
2023-10-23T22:11:44.732Z,96409.21
2023-10-23T22:14:13.704Z,96412.84
2023-10-23T22:16:42.287Z,96408.13
2023-10-23T22:19:11.056Z,96407.96
2023-10-23T22:21:39.593Z,96405.39
2023-10-23T22:24:08.132Z,96399.19
2023-10-23T22:26:36.966Z,96391.01
2023-10-23T22:29:05.474Z,96384.13
2023-10-23T22:31:33.997Z,96382.48
2023-10-23T22:34:02.714Z,96380.84
2023-10-23T22:36:31.209Z,96373.27
2023-10-23T22:38:59.592Z,96368.20
2023-10-23T22:41:28.180Z,96367.20
2023-10-23T22:43:56.659Z,96371.45
2023-10-23T22:46:28.273Z,96368.57
2023-10-23T22:48:56.800Z,96364.88
2023-10-23T22:51:25.692Z,96359.89
2023-10-23T22:53:54.580Z,96356.79
2023-10-23T22:56:23.292Z,96358.73
2023-10-23T22:58:52.034Z,96360.84
2023-10-23T23:01:22.207Z,96361.20
2023-10-23T23:03:50.919Z,96361.86
2023-10-23T23:06:20.684Z,96359.39
2023-10-23T23:08:52.956Z,96365.95
2023-10-23T23:11:21.846Z,96365.75
2023-10-23T23:13:53.476Z,96369.95
2023-10-23T23:16:22.255Z,96381.80
2023-10-23T23:18:52.935Z,96382.75
2023-10-23T23:21:23.520Z,96382.40
2023-10-23T23:23:51.937Z,96381.35
2023-10-23T23:26:21.853Z,96376.42
2023-10-23T23:28:50.230Z,96370.84
2023-10-23T23:31:18.700Z,96376.82
2023-10-23T23:33:47.301Z,96376.80
2023-10-23T23:36:15.991Z,96374.80
2023-10-23T23:38:44.366Z,96374.20
2023-10-23T23:41:12.842Z,96371.60
2023-10-23T23:43:41.368Z,96366.19
2023-10-23T23:46:10.249Z,96362.29
2023-10-23T23:48:38.796Z,96357.95
2023-10-23T23:51:07.284Z,96351.86
2023-10-23T23:53:35.804Z,96339.73
2023-10-23T23:56:04.852Z,96337.81
2023-10-23T23:58:33.266Z,96338.08
